Time;durP1;ratioP1;P1;durP2;ratioP2;P2;SDS_P1;SDS_P2;PMS_P1;PMS_P2;Temp;Humidity;BMP_temperature;BMP_pressure;BME280_temperature;BME280_humidity;BME280_pressure;Samples;Min_cycle;Max_cycle;Signal;HPM_P1;HPM_P2
2022/10/02 00:02:12;;;;;;;1.45;0.60;;;;;;;;;;5065125;28;20064;-56
2022/10/02 00:04:40;;;;;;;1.35;0.63;;;;;;;;;;5053006;28;20041;-55
2022/10/02 00:07:09;;;;;;;5.20;0.70;;;;;;;;;;5056739;28;20047;-56
2022/10/02 00:09:41;;;;;;;1.00;0.25;;;;;;;;;;5056506;28;20041;-56
2022/10/02 00:12:10;;;;;;;1.00;0.47;;;;;;;;;;5050787;28;20068;-56
2022/10/02 00:14:37;;;;;;;1.42;0.70;;;;;;;;;;5058619;28;20049;-56
2022/10/02 00:17:04;;;;;;;0.38;0.38;;;;;;;;;;5051273;28;20053;-56
2022/10/02 00:19:30;;;;;;;1.38;0.40;;;;;;;;;;5058252;28;20037;-56
2022/10/02 00:22:05;;;;;;;1.00;0.50;;;;;;;;;;5052137;28;20083;-57
2022/10/02 00:24:46;;;;;;;0.98;0.30;;;;;;;;;;5045372;28;20048;-56
2022/10/02 00:27:15;;;;;;;0.82;0.38;;;;;;;;;;5047807;28;20072;-56
2022/10/02 00:29:49;;;;;;;1.08;0.30;;;;;;;;;;5052022;28;20043;-56
2022/10/02 00:32:18;;;;;;;1.35;0.50;;;;;;;;;;5048028;28;20060;-57
2022/10/02 00:34:53;;;;;;;0.45;0.30;;;;;;;;;;5053298;28;20053;-56
2022/10/02 00:37:21;;;;;;;1.65;0.50;;;;;;;;;;5044851;28;20052;-56
2022/10/02 00:39:47;;;;;;;2.30;0.53;;;;;;;;;;5059553;28;20056;-56
2022/10/02 00:42:13;;;;;;;1.63;0.43;;;;;;;;;;5056848;28;20218;-56
2022/10/02 00:44:44;;;;;;;0.63;0.45;;;;;;;;;;5055671;28;20052;-56
2022/10/02 00:47:21;;;;;;;0.73;0.40;;;;;;;;;;5056655;28;20044;-57
2022/10/02 00:49:58;;;;;;;1.58;0.60;;;;;;;;;;5052338;28;20045;-56
2022/10/02 00:52:49;;;;;;;0.93;0.40;;;;;;;;;;5056450;28;20052;-57
2022/10/02 00:55:24;;;;;;;0.47;0.30;;;;;;;;;;5059343;28;20102;-56
2022/10/02 00:58:07;;;;;;;0.80;0.45;;;;;;;;;;5058609;28;20085;-56
2022/10/02 01:00:33;;;;;;;2.20;0.50;;;;;;;;;;5060165;28;20060;-56
2022/10/02 01:03:04;;;;;;;2.78;0.60;;;;;;;;;;5061172;28;20036;-57
2022/10/02 01:05:30;;;;;;;1.35;0.60;;;;;;;;;;5054513;28;20136;-56
2022/10/02 01:07:56;;;;;;;1.42;0.57;;;;;;;;;;5053046;28;20094;-56
2022/10/02 01:10:26;;;;;;;1.20;0.60;;;;;;;;;;5062945;28;20436;-56
2022/10/02 01:12:56;;;;;;;0.40;0.30;;;;;;;;;;5054408;28;20040;-56
2022/10/02 01:15:23;;;;;;;0.77;0.38;;;;;;;;;;5051850;28;20049;-57
2022/10/02 01:17:50;;;;;;;1.17;0.50;;;;;;;;;;5058203;28;20037;-56
2022/10/02 01:20:23;;;;;;;0.60;0.40;;;;;;;;;;5051874;28;20045;-56
2022/10/02 01:23:12;;;;;;;0.68;0.40;;;;;;;;;;5052271;28;20041;-56
2022/10/02 01:25:38;;;;;;;0.40;0.30;;;;;;;;;;5056628;28;20049;-56
2022/10/02 01:28:04;;;;;;;1.42;0.50;;;;;;;;;;5058060;28;20064;-56
2022/10/02 01:30:31;;;;;;;0.30;0.30;;;;;;;;;;5057097;28;20058;-56
2022/10/02 01:32:59;;;;;;;2.00;0.73;;;;;;;;;;5055073;28;20120;-56
2022/10/02 01:35:32;;;;;;;0.47;0.30;;;;;;;;;;5050000;28;20041;-56
2022/10/02 01:37:59;;;;;;;0.32;0.30;;;;;;;;;;5049430;28;20826;-54
2022/10/02 01:40:30;;;;;;;0.90;0.50;;;;;;;;;;5055607;28;20544;-57
2022/10/02 01:42:59;;;;;;;3.28;1.10;;;;;;;;;;5057630;28;20494;-56
2022/10/02 01:45:34;;;;;;;1.50;0.95;;;;;;;;;;5059987;28;20086;-56
2022/10/02 01:48:20;;;;;;;2.88;0.88;;;;;;;;;;5056364;28;20044;-56
2022/10/02 01:51:05;;;;;;;2.95;1.00;;;;;;;;;;5060461;28;20459;-56
2022/10/02 01:53:45;;;;;;;1.42;0.73;;;;;;;;;;5059658;28;20387;-56
2022/10/02 01:56:14;;;;;;;1.67;0.80;;;;;;;;;;5053909;28;20056;-56
2022/10/02 01:58:49;;;;;;;1.20;0.57;;;;;;;;;;5057616;28;20688;-56
2022/10/02 02:01:21;;;;;;;1.13;0.50;;;;;;;;;;5063891;28;20093;-57
2022/10/02 02:03:53;;;;;;;3.45;0.60;;;;;;;;;;5048475;28;20051;-56
2022/10/02 02:06:19;;;;;;;1.90;0.75;;;;;;;;;;5047129;28;20396;-56
2022/10/02 02:08:48;;;;;;;1.08;0.40;;;;;;;;;;5063147;28;20045;-57
2022/10/02 02:11:16;;;;;;;1.70;0.75;;;;;;;;;;5059937;28;20091;-56
2022/10/02 02:13:53;;;;;;;0.55;0.30;;;;;;;;;;5051171;28;20076;-56
2022/10/02 02:16:19;;;;;;;0.82;0.60;;;;;;;;;;5050797;28;20045;-56
2022/10/02 02:18:51;;;;;;;0.88;0.40;;;;;;;;;;5058692;28;20641;-56
2022/10/02 02:21:20;;;;;;;1.13;0.50;;;;;;;;;;5051750;28;20049;-55
2022/10/02 02:23:47;;;;;;;0.55;0.45;;;;;;;;;;5056139;28;20037;-56
2022/10/02 02:26:17;;;;;;;0.73;0.52;;;;;;;;;;5047135;28;20041;-56
2022/10/02 02:28:45;;;;;;;1.17;0.40;;;;;;;;;;5044920;28;20053;-56
2022/10/02 02:31:12;;;;;;;1.95;0.73;;;;;;;;;;5050481;28;20041;-56
2022/10/02 02:33:48;;;;;;;0.60;0.40;;;;;;;;;;5063719;28;20055;-57
2022/10/02 02:36:15;;;;;;;1.92;0.73;;;;;;;;;;5047460;28;20628;-57
2022/10/02 02:38:44;;;;;;;1.00;0.40;;;;;;;;;;5054381;28;20094;-57
2022/10/02 02:41:13;;;;;;;1.17;0.68;;;;;;;;;;5046915;28;20041;-57
2022/10/02 02:43:48;;;;;;;2.13;0.75;;;;;;;;;;5061054;28;20044;-56
2022/10/02 02:46:26;;;;;;;1.50;0.60;;;;;;;;;;5066319;28;20048;-56
2022/10/02 02:48:56;;;;;;;1.35;0.73;;;;;;;;;;5060938;28;20056;-56
2022/10/02 02:51:33;;;;;;;7.30;0.70;;;;;;;;;;5053626;28;20526;-56
2022/10/02 02:54:02;;;;;;;4.43;1.10;;;;;;;;;;5052996;28;20044;-56
2022/10/02 02:56:29;;;;;;;4.65;1.00;;;;;;;;;;5057725;28;20449;-56
2022/10/02 02:59:08;;;;;;;4.80;0.98;;;;;;;;;;5059942;28;20071;-56
2022/10/02 03:01:34;;;;;;;2.53;1.58;;;;;;;;;;5052630;28;20044;-57
2022/10/02 03:04:00;;;;;;;4.05;1.02;;;;;;;;;;5055474;28;20107;-56
2022/10/02 03:06:32;;;;;;;7.82;1.33;;;;;;;;;;5053889;28;20063;-57
2022/10/02 03:08:59;;;;;;;4.63;1.20;;;;;;;;;;5053073;28;20786;-56
2022/10/02 03:11:35;;;;;;;3.15;0.95;;;;;;;;;;5054715;28;20063;-56
2022/10/02 03:14:16;;;;;;;3.42;1.27;;;;;;;;;;5056000;28;20400;-55
2022/10/02 03:17:02;;;;;;;4.15;1.08;;;;;;;;;;5055395;28;20635;-56
2022/10/02 03:19:37;;;;;;;1.23;0.65;;;;;;;;;;5058749;28;20055;-56
2022/10/02 03:22:19;;;;;;;3.08;0.98;;;;;;;;;;5057162;28;20052;-56
2022/10/02 03:24:48;;;;;;;4.67;1.23;;;;;;;;;;5064365;28;20495;-56
2022/10/02 03:27:32;;;;;;;1.65;0.82;;;;;;;;;;5058660;28;20085;-56
2022/10/02 03:30:04;;;;;;;3.50;1.00;;;;;;;;;;5056790;28;20036;-56
2022/10/02 03:32:31;;;;;;;5.75;1.48;;;;;;;;;;5067791;28;20044;-55
2022/10/02 03:34:57;;;;;;;5.88;1.48;;;;;;;;;;5052333;28;20037;-55
2022/10/02 03:37:25;;;;;;;3.35;1.00;;;;;;;;;;5057357;28;20057;-56
2022/10/02 03:39:51;;;;;;;3.03;1.20;;;;;;;;;;5038854;28;20064;-57
2022/10/02 03:42:19;;;;;;;1.70;0.68;;;;;;;;;;5049502;28;20048;-56
2022/10/02 03:44:45;;;;;;;4.05;0.85;;;;;;;;;;5057661;28;20055;-56
2022/10/02 03:47:11;;;;;;;3.25;1.10;;;;;;;;;;5052501;28;20045;-56
2022/10/02 03:49:38;;;;;;;2.85;0.80;;;;;;;;;;5062923;28;20192;-56
2022/10/02 03:52:04;;;;;;;5.57;1.30;;;;;;;;;;5059890;28;20044;-56
2022/10/02 03:54:31;;;;;;;2.90;0.80;;;;;;;;;;5065707;28;20067;-56
2022/10/02 03:57:01;;;;;;;2.92;1.02;;;;;;;;;;5066386;28;20064;-56
2022/10/02 03:59:29;;;;;;;6.05;1.02;;;;;;;;;;5058448;28;20060;-55
2022/10/02 04:01:57;;;;;;;4.25;1.15;;;;;;;;;;5061371;28;20040;-56
2022/10/02 04:04:29;;;;;;;0.68;0.50;;;;;;;;;;5061448;28;20052;-56
2022/10/02 04:07:05;;;;;;;3.07;0.80;;;;;;;;;;5055119;28;20056;-56
2022/10/02 04:09:51;;;;;;;3.30;1.05;;;;;;;;;;5054193;28;20279;-56
2022/10/02 04:12:22;;;;;;;1.58;0.82;;;;;;;;;;5056511;28;20094;-56
2022/10/02 04:14:51;;;;;;;2.65;0.90;;;;;;;;;;5054629;28;20051;-56
2022/10/02 04:17:24;;;;;;;2.30;0.70;;;;;;;;;;5055950;28;20131;-56
2022/10/02 04:19:56;;;;;;;3.50;1.15;;;;;;;;;;5058915;28;20055;-56
2022/10/02 04:22:22;;;;;;;1.67;0.98;;;;;;;;;;5054679;28;20543;-57
2022/10/02 04:24:53;;;;;;;3.47;0.70;;;;;;;;;;5054621;28;20044;-56
2022/10/02 04:27:35;;;;;;;1.52;0.55;;;;;;;;;;5054238;28;20041;-56
2022/10/02 04:30:03;;;;;;;3.08;0.63;;;;;;;;;;5053040;28;20055;-56
2022/10/02 04:32:30;;;;;;;2.97;0.60;;;;;;;;;;5047603;28;20045;-56
2022/10/02 04:34:57;;;;;;;1.40;0.50;;;;;;;;;;5051788;28;20048;-55
2022/10/02 04:37:23;;;;;;;2.50;0.70;;;;;;;;;;5048254;28;20582;-56
2022/10/02 04:40:12;;;;;;;1.55;0.50;;;;;;;;;;5047594;28;20051;-56
2022/10/02 04:42:58;;;;;;;2.08;0.40;;;;;;;;;;5044606;28;20048;-56
2022/10/02 04:45:39;;;;;;;1.77;0.90;;;;;;;;;;5039852;28;20144;-56
2022/10/02 04:48:24;;;;;;;0.65;0.40;;;;;;;;;;5055374;28;20065;-56
2022/10/02 04:51:03;;;;;;;1.63;0.77;;;;;;;;;;5058241;28;20127;-56
2022/10/02 04:53:45;;;;;;;0.98;0.30;;;;;;;;;;5053718;28;20041;-56
2022/10/02 04:56:19;;;;;;;1.00;0.40;;;;;;;;;;5052706;28;20068;-56
2022/10/02 04:58:51;;;;;;;1.65;0.57;;;;;;;;;;5062229;28;20483;-56
2022/10/02 05:01:17;;;;;;;1.55;0.82;;;;;;;;;;5049534;28;20052;-56
2022/10/02 05:03:55;;;;;;;3.13;1.13;;;;;;;;;;5053812;28;20041;-57
2022/10/02 05:06:21;;;;;;;2.58;0.52;;;;;;;;;;5057513;28;20049;-56
2022/10/02 05:08:56;;;;;;;1.75;0.50;;;;;;;;;;5052039;28;20134;-56
2022/10/02 05:11:25;;;;;;;1.25;0.52;;;;;;;;;;5058218;28;20519;-56
2022/10/02 05:13:51;;;;;;;1.10;0.40;;;;;;;;;;5067228;28;20041;-56
2022/10/02 05:16:23;;;;;;;1.08;0.43;;;;;;;;;;5053855;28;20499;-56
2022/10/02 05:18:49;;;;;;;0.20;0.20;;;;;;;;;;5054791;28;20048;-56
2022/10/02 05:21:34;;;;;;;1.48;0.80;;;;;;;;;;5056483;28;20052;-56
2022/10/02 05:24:02;;;;;;;1.40;0.43;;;;;;;;;;5050046;28;20120;-56
2022/10/02 05:26:35;;;;;;;1.10;0.40;;;;;;;;;;5051549;28;20420;-57
2022/10/02 05:29:10;;;;;;;2.05;0.57;;;;;;;;;;5054304;28;20041;-56
2022/10/02 05:31:42;;;;;;;1.45;0.68;;;;;;;;;;5051783;28;20724;-56
2022/10/02 05:34:23;;;;;;;3.15;0.52;;;;;;;;;;5058851;28;20085;-56
2022/10/02 05:37:19;;;;;;;1.33;0.40;;;;;;;;;;5059162;28;20049;-56
2022/10/02 05:39:52;;;;;;;1.70;0.70;;;;;;;;;;5044036;28;20080;-56
2022/10/02 05:42:27;;;;;;;2.25;0.90;;;;;;;;;;5058636;28;20507;-56
2022/10/02 05:44:59;;;;;;;2.75;0.60;;;;;;;;;;5065062;28;20051;-56
2022/10/02 05:47:30;;;;;;;2.80;0.70;;;;;;;;;;5063267;28;20048;-56
2022/10/02 05:49:59;;;;;;;3.25;0.65;;;;;;;;;;5061272;28;20524;-55
2022/10/02 05:52:30;;;;;;;0.68;0.43;;;;;;;;;;5065042;28;20491;-56
2022/10/02 05:54:59;;;;;;;2.45;0.73;;;;;;;;;;5068220;28;20434;-56
2022/10/02 05:57:37;;;;;;;2.55;0.60;;;;;;;;;;5066728;28;20119;-56
2022/10/02 06:00:03;;;;;;;1.75;0.47;;;;;;;;;;5059144;28;20856;-56
2022/10/02 06:02:39;;;;;;;1.60;0.63;;;;;;;;;;5061623;28;20136;-56
2022/10/02 06:05:13;;;;;;;1.58;0.25;;;;;;;;;;5060613;28;20055;-56
2022/10/02 06:07:41;;;;;;;2.85;0.68;;;;;;;;;;5042633;28;20127;-56
2022/10/02 06:10:11;;;;;;;2.35;0.43;;;;;;;;;;5048564;28;20052;-56
2022/10/02 06:12:44;;;;;;;2.10;0.60;;;;;;;;;;5057191;28;20048;-56
2022/10/02 06:15:28;;;;;;;0.70;0.50;;;;;;;;;;5055798;28;20048;-56
2022/10/02 06:17:59;;;;;;;3.88;0.73;;;;;;;;;;5064426;28;20059;-56
2022/10/02 06:20:40;;;;;;;1.50;0.55;;;;;;;;;;5058380;28;20041;-54
2022/10/02 06:23:19;;;;;;;1.08;0.70;;;;;;;;;;5066073;28;20044;-56
2022/10/02 06:25:50;;;;;;;2.33;0.60;;;;;;;;;;5062583;28;20041;-56
2022/10/02 06:28:19;;;;;;;0.98;0.50;;;;;;;;;;5063732;28;20164;-57
2022/10/02 06:30:47;;;;;;;0.70;0.50;;;;;;;;;;5053981;28;20571;-57
2022/10/02 06:33:13;;;;;;;0.85;0.50;;;;;;;;;;5056795;28;20101;-57
2022/10/02 06:35:48;;;;;;;3.05;0.90;;;;;;;;;;5057720;28;20174;-56
2022/10/02 06:38:35;;;;;;;2.70;0.85;;;;;;;;;;5052042;28;20084;-56
2022/10/02 06:41:12;;;;;;;1.52;0.52;;;;;;;;;;5050439;28;20044;-56
2022/10/02 06:43:57;;;;;;;1.52;0.57;;;;;;;;;;5057926;28;20124;-56
2022/10/02 06:46:32;;;;;;;2.00;0.65;;;;;;;;;;5058082;28;20044;-56
2022/10/02 06:49:01;;;;;;;1.63;0.50;;;;;;;;;;5059884;28;20143;-57
2022/10/02 06:51:34;;;;;;;2.78;0.77;;;;;;;;;;5063482;28;20048;-56
2022/10/02 06:54:05;;;;;;;2.33;0.68;;;;;;;;;;5061967;28;20463;-56
2022/10/02 06:56:37;;;;;;;2.55;0.90;;;;;;;;;;5064681;28;20056;-56
2022/10/02 06:59:24;;;;;;;3.05;0.77;;;;;;;;;;5060776;28;20059;-56
2022/10/02 07:01:49;;;;;;;1.88;0.77;;;;;;;;;;5061106;28;20040;-56
2022/10/02 07:04:23;;;;;;;1.75;0.65;;;;;;;;;;5060643;28;20859;-55
2022/10/02 07:06:55;;;;;;;1.70;1.00;;;;;;;;;;5058167;28;20052;-56
2022/10/02 07:09:24;;;;;;;1.90;0.80;;;;;;;;;;5054867;28;20131;-56
2022/10/02 07:11:50;;;;;;;2.97;1.13;;;;;;;;;;5055587;28;20048;-55
2022/10/02 07:14:26;;;;;;;2.10;0.70;;;;;;;;;;5057415;28;20048;-56
2022/10/02 07:16:56;;;;;;;1.42;0.60;;;;;;;;;;5057857;28;20507;-56
2022/10/02 07:19:25;;;;;;;3.42;0.70;;;;;;;;;;5056175;28;20059;-56
2022/10/02 07:22:07;;;;;;;2.03;0.75;;;;;;;;;;5046345;28;20120;-55
2022/10/02 07:24:33;;;;;;;2.88;0.70;;;;;;;;;;5056071;28;20039;-56
2022/10/02 07:27:16;;;;;;;1.63;0.38;;;;;;;;;;5057325;28;20101;-56
2022/10/02 07:29:55;;;;;;;1.23;0.90;;;;;;;;;;5035860;28;20060;-56
2022/10/02 07:32:33;;;;;;;0.70;0.38;;;;;;;;;;5056660;28;20053;-56
2022/10/02 07:35:18;;;;;;;0.57;0.38;;;;;;;;;;5058006;28;20044;-55
2022/10/02 07:37:53;;;;;;;1.45;0.80;;;;;;;;;;5054640;28;20060;-56
2022/10/02 07:40:28;;;;;;;1.98;0.60;;;;;;;;;;5055352;28;20049;-56
2022/10/02 07:43:00;;;;;;;1.05;0.50;;;;;;;;;;5055030;28;20533;-55
2022/10/02 07:45:27;;;;;;;0.93;0.60;;;;;;;;;;5055104;28;20048;-56
2022/10/02 07:47:56;;;;;;;0.70;0.40;;;;;;;;;;5055054;28;20056;-56
2022/10/02 07:50:42;;;;;;;1.23;0.43;;;;;;;;;;5054803;28;20051;-56
2022/10/02 07:53:12;;;;;;;1.00;0.30;;;;;;;;;;5054173;28;20043;-56
2022/10/02 07:55:43;;;;;;;0.85;0.47;;;;;;;;;;5057106;28;20170;-56
2022/10/02 07:58:30;;;;;;;0.65;0.35;;;;;;;;;;5052004;28;20057;-56
2022/10/02 08:01:00;;;;;;;0.52;0.30;;;;;;;;;;5053553;28;20048;-56
2022/10/02 08:03:34;;;;;;;0.75;0.43;;;;;;;;;;5056828;28;20132;-56
2022/10/02 08:06:01;;;;;;;1.38;0.57;;;;;;;;;;5057039;28;20051;-56
2022/10/02 08:08:46;;;;;;;1.63;0.50;;;;;;;;;;5053977;28;20033;-56
2022/10/02 08:11:15;;;;;;;1.52;0.40;;;;;;;;;;5055536;28;20036;-56
2022/10/02 08:14:07;;;;;;;1.70;0.57;;;;;;;;;;5052574;28;20059;-56
2022/10/02 08:16:38;;;;;;;3.30;0.82;;;;;;;;;;5024984;28;20088;-56
2022/10/02 08:19:08;;;;;;;2.78;0.95;;;;;;;;;;5055074;28;20124;-56
2022/10/02 08:21:38;;;;;;;3.10;1.00;;;;;;;;;;5057068;28;20049;-56
2022/10/02 08:24:09;;;;;;;5.28;1.50;;;;;;;;;;5053625;28;20064;-56
2022/10/02 08:26:45;;;;;;;3.45;0.90;;;;;;;;;;5049400;28;20391;-56
2022/10/02 08:29:33;;;;;;;5.15;1.48;;;;;;;;;;5064724;28;20044;-56
2022/10/02 08:31:59;;;;;;;5.00;1.30;;;;;;;;;;5053444;28;20127;-57
2022/10/02 08:34:25;;;;;;;6.47;1.15;;;;;;;;;;5061564;28;20122;-56
2022/10/02 08:36:58;;;;;;;4.80;0.93;;;;;;;;;;5059269;28;20087;-56
2022/10/02 08:39:43;;;;;;;5.50;1.02;;;;;;;;;;5047090;28;20060;-56
2022/10/02 08:42:21;;;;;;;3.53;1.35;;;;;;;;;;5056895;28;20072;-56
2022/10/02 08:45:06;;;;;;;2.30;1.00;;;;;;;;;;5057425;28;20124;-56
2022/10/02 08:47:52;;;;;;;1.60;0.88;;;;;;;;;;5057928;28;20052;-56
2022/10/02 08:50:28;;;;;;;2.08;0.88;;;;;;;;;;5058030;28;20048;-56
2022/10/02 08:53:13;;;;;;;1.30;0.63;;;;;;;;;;5047159;28;20052;-56
2022/10/02 08:55:46;;;;;;;0.60;0.55;;;;;;;;;;5046911;28;20044;-56
2022/10/02 08:58:12;;;;;;;1.33;0.60;;;;;;;;;;5055883;28;20095;-56
2022/10/02 09:00:44;;;;;;;0.52;0.20;;;;;;;;;;5062653;28;20040;-56
2022/10/02 09:03:13;;;;;;;0.60;0.50;;;;;;;;;;5065133;28;20098;-56
2022/10/02 09:05:58;;;;;;;0.35;0.20;;;;;;;;;;5057255;28;20068;-56
2022/10/02 09:08:36;;;;;;;0.80;0.40;;;;;;;;;;5064794;28;20138;-56
2022/10/02 09:11:21;;;;;;;0.82;0.50;;;;;;;;;;5058620;28;20143;-56
2022/10/02 09:13:50;;;;;;;1.02;0.40;;;;;;;;;;5063323;28;20356;-57
2022/10/02 09:16:32;;;;;;;0.88;0.30;;;;;;;;;;5055852;28;20051;-57
2022/10/02 09:19:23;;;;;;;2.88;0.65;;;;;;;;;;5052725;28;20052;-57
2022/10/02 09:21:49;;;;;;;2.47;0.80;;;;;;;;;;5055805;28;20048;-51
2022/10/02 09:24:34;;;;;;;2.08;0.73;;;;;;;;;;5059322;28;20048;-52
2022/10/02 09:27:00;;;;;;;2.85;1.17;;;;;;;;;;5063961;28;20060;-55
2022/10/02 09:29:35;;;;;;;3.17;1.00;;;;;;;;;;5058111;28;20501;-57
2022/10/02 09:32:20;;;;;;;4.60;1.55;;;;;;;;;;5063776;28;20403;-56
2022/10/02 09:35:05;;;;;;;5.05;1.55;;;;;;;;;;5061724;28;20141;-56
2022/10/02 09:37:58;;;;;;;4.97;1.30;;;;;;;;;;5056636;28;20043;-56
2022/10/02 09:40:42;;;;;;;3.65;1.15;;;;;;;;;;5023552;28;20095;-56
2022/10/02 09:43:11;;;;;;;7.32;1.55;;;;;;;;;;5061238;28;20048;-57
2022/10/02 09:45:53;;;;;;;6.57;1.67;;;;;;;;;;5063357;28;20107;-57
2022/10/02 09:48:41;;;;;;;4.27;1.40;;;;;;;;;;5054909;28;20144;-57
2022/10/02 09:51:26;;;;;;;5.18;1.55;;;;;;;;;;5057663;28;20083;-57
2022/10/02 09:54:11;;;;;;;6.57;1.83;;;;;;;;;;5054736;28;20083;-57
2022/10/02 09:56:59;;;;;;;5.90;1.67;;;;;;;;;;5049574;28;20210;-56
2022/10/02 09:59:44;;;;;;;7.00;1.80;;;;;;;;;;5053091;28;20064;-57
2022/10/02 10:02:28;;;;;;;7.03;1.40;;;;;;;;;;5053511;28;20094;-57
2022/10/02 10:05:13;;;;;;;5.90;1.58;;;;;;;;;;5055755;28;20492;-57
2022/10/02 10:07:55;;;;;;;11.05;2.15;;;;;;;;;;5052577;28;20049;-57
2022/10/02 10:10:39;;;;;;;4.00;1.90;;;;;;;;;;5045888;28;20037;-57
2022/10/02 10:13:08;;;;;;;2.97;1.20;;;;;;;;;;5054168;28;20049;-57
2022/10/02 10:16:00;;;;;;;3.17;1.40;;;;;;;;;;5051337;28;20052;-57
2022/10/02 10:18:26;;;;;;;;;;;;;;;;;;5052406;28;20083;-57
2022/10/02 10:21:22;;;;;;;6.32;1.67;;;;;;;;;;5056556;28;20299;-56
2022/10/02 10:23:49;;;;;;;6.18;1.33;;;;;;;;;;4976823;28;20062;-56
2022/10/02 10:26:32;;;;;;;6.85;2.03;;;;;;;;;;5052995;28;20140;-57
2022/10/02 10:29:18;;;;;;;7.70;1.88;;;;;;;;;;5059067;28;20044;-57
2022/10/02 10:32:04;;;;;;;6.50;1.98;;;;;;;;;;5048487;28;20064;-57
2022/10/02 10:34:47;;;;;;;7.20;1.75;;;;;;;;;;5047752;28;20464;-57
2022/10/02 10:40:26;;;;;;;5.07;1.92;;;;;;;;;;5045840;28;20057;-57
2022/10/02 10:43:03;;;;;;;7.00;1.98;;;;;;;;;;5054581;28;20055;-57
2022/10/02 10:45:29;;;;;;;6.15;2.00;;;;;;;;;;5051414;28;20110;-59
2022/10/02 10:47:55;;;;;;;3.90;1.40;;;;;;;;;;5056099;28;20037;-56
2022/10/02 10:50:39;;;;;;;9.77;2.38;;;;;;;;;;5034234;28;20132;-57
2022/10/02 10:53:26;;;;;;;7.47;1.85;;;;;;;;;;5052710;28;20073;-57
2022/10/02 10:56:02;;;;;;;6.35;1.63;;;;;;;;;;5048446;28;20045;-57
2022/10/02 10:58:48;;;;;;;8.80;1.60;;;;;;;;;;5046509;28;20052;-57
2022/10/02 11:01:36;;;;;;;6.10;1.70;;;;;;;;;;5045128;28;20075;-57
2022/10/02 11:04:20;;;;;;;5.18;1.42;;;;;;;;;;5053613;28;20041;-57
2022/10/02 11:07:02;;;;;;;8.77;1.92;;;;;;;;;;5050029;28;20055;-57
2022/10/02 11:09:47;;;;;;;8.30;2.20;;;;;;;;;;5046366;28;20140;-57
2022/10/02 11:12:27;;;;;;;5.63;1.85;;;;;;;;;;5051143;28;20376;-57
2022/10/02 11:14:58;;;;;;;7.68;2.10;;;;;;;;;;5047711;28;20048;-57
2022/10/02 11:17:43;;;;;;;7.43;1.85;;;;;;;;;;5055286;28;20052;-57
2022/10/02 11:20:15;;;;;;;5.07;1.85;;;;;;;;;;5048242;28;20044;-58
2022/10/02 11:22:47;;;;;;;4.43;1.65;;;;;;;;;;5045745;28;20527;-58
2022/10/02 11:25:13;;;;;;;;;;;;;;;;;;5046651;28;20613;-58
2022/10/02 11:27:56;;;;;;;7.93;2.00;;;;;;;;;;5057753;28;19920;-58
2022/10/02 11:30:31;;;;;;;5.55;1.70;;;;;;;;;;5054656;28;20671;-58
2022/10/02 11:33:00;;;;;;;4.25;1.65;;;;;;;;;;5059475;28;20043;-58
2022/10/02 11:35:31;;;;;;;6.43;2.10;;;;;;;;;;5058294;28;20461;-58
2022/10/02 11:38:16;;;;;;;5.37;1.80;;;;;;;;;;5060414;28;20048;-58
2022/10/02 11:40:43;;;;;;;6.05;1.30;;;;;;;;;;5056706;28;20056;-58
2022/10/02 11:43:33;;;;;;;5.15;1.63;;;;;;;;;;5064165;28;20044;-58
2022/10/02 11:46:02;;;;;;;3.80;1.50;;;;;;;;;;5047873;28;20122;-58
2022/10/02 11:48:42;;;;;;;8.60;2.10;;;;;;;;;;5055425;28;20554;-58
2022/10/02 11:51:23;;;;;;;3.95;1.48;;;;;;;;;;5059688;28;20051;-58
2022/10/02 11:53:52;;;;;;;4.70;1.55;;;;;;;;;;5060977;28;20036;-59
2022/10/02 11:56:30;;;;;;;5.40;1.67;;;;;;;;;;5049868;28;20057;-58
2022/10/02 11:59:29;;;;;;;4.90;1.42;;;;;;;;;;5055187;28;20053;-58
2022/10/02 12:02:06;;;;;;;8.68;1.92;;;;;;;;;;5000707;28;20400;-58
2022/10/02 12:05:04;;;;;;;2.88;1.08;;;;;;;;;;5059231;28;20106;-58
2022/10/02 12:07:30;;;;;;;7.05;1.30;;;;;;;;;;4982773;28;20064;-58
2022/10/02 12:10:15;;;;;;;4.10;1.17;;;;;;;;;;5046107;28;20056;-58
2022/10/02 12:12:56;;;;;;;4.05;1.35;;;;;;;;;;5053092;28;20041;-58
2022/10/02 12:15:33;;;;;;;2.92;1.10;;;;;;;;;;5054269;28;20551;-58
2022/10/02 12:18:14;;;;;;;6.10;1.60;;;;;;;;;;5046395;28;20041;-58
2022/10/02 12:29:07;;;;;;;4.55;1.23;;;;;;;;;;5056002;28;20488;-58
2022/10/02 12:31:43;;;;;;;4.95;1.17;;;;;;;;;;5051414;28;20052;-58
2022/10/02 12:34:13;;;;;;;8.18;1.90;;;;;;;;;;5057272;28;20067;-57
2022/10/02 12:36:48;;;;;;;3.85;1.98;;;;;;;;;;5048862;28;20053;-58
2022/10/02 12:39:14;;;;;;;4.20;1.63;;;;;;;;;;5056828;28;20049;-58
2022/10/02 12:42:03;;;;;;;5.28;1.70;;;;;;;;;;5051528;28;20587;-58
2022/10/02 12:44:43;;;;;;;7.60;1.60;;;;;;;;;;5056035;28;20049;-58
2022/10/02 12:47:22;;;;;;;11.52;2.60;;;;;;;;;;5051169;28;20087;-58
2022/10/02 12:49:49;;;;;;;8.85;2.45;;;;;;;;;;5055040;28;20051;-58
2022/10/02 12:52:34;;;;;;;6.13;2.03;;;;;;;;;;5053506;28;20643;-57
2022/10/02 12:55:00;;;;;;;6.60;2.15;;;;;;;;;;5056658;28;20052;-58
2022/10/02 13:00:13;;;;;;;7.07;2.47;;;;;;;;;;5053624;28;20488;-58
2022/10/02 13:02:48;;;;;;;8.68;1.75;;;;;;;;;;5055264;28;20137;-57
2022/10/02 13:05:33;;;;;;;9.30;2.10;;;;;;;;;;5053439;28;20071;-58
2022/10/02 13:08:21;;;;;;;7.00;1.98;;;;;;;;;;5051916;28;20112;-58
2022/10/02 13:10:56;;;;;;;5.75;1.77;;;;;;;;;;5052575;28;20456;-58
2022/10/02 13:13:25;;;;;;;5.35;1.58;;;;;;;;;;5056184;28;20053;-58
2022/10/02 13:15:55;;;;;;;4.15;1.48;;;;;;;;;;5053619;28;20045;-58
2022/10/02 13:18:21;;;;;;;4.18;1.52;;;;;;;;;;5053451;28;20098;-58
2022/10/02 13:20:53;;;;;;;3.55;1.17;;;;;;;;;;5055461;28;20041;-58
2022/10/02 13:23:34;;;;;;;2.83;1.20;;;;;;;;;;5050748;28;20511;-58
2022/10/02 13:26:07;;;;;;;5.50;1.55;;;;;;;;;;5054470;28;20044;-58
2022/10/02 13:28:52;;;;;;;5.07;1.92;;;;;;;;;;5048279;28;20051;-58
2022/10/02 13:31:27;;;;;;;6.53;1.98;;;;;;;;;;5052137;28;20032;-58
2022/10/02 13:34:06;;;;;;;3.13;1.50;;;;;;;;;;5055418;28;20705;-58
2022/10/02 13:36:37;;;;;;;5.75;1.98;;;;;;;;;;5054102;28;20720;-58
2022/10/02 13:39:21;;;;;;;7.45;2.30;;;;;;;;;;5050633;28;20049;-58
2022/10/02 13:41:54;;;;;;;7.82;2.30;;;;;;;;;;5053386;28;20131;-58
2022/10/02 13:44:26;;;;;;;6.55;1.52;;;;;;;;;;5051417;28;20048;-58
2022/10/02 13:47:01;;;;;;;7.82;1.77;;;;;;;;;;5051292;28;20044;-58
2022/10/02 13:49:27;;;;;;;3.65;1.55;;;;;;;;;;5043896;28;20053;-57
2022/10/02 13:52:01;;;;;;;5.68;1.60;;;;;;;;;;5051739;28;20087;-58
2022/10/02 13:54:33;;;;;;;7.47;1.85;;;;;;;;;;5056849;28;20059;-58
2022/10/02 13:57:17;;;;;;;4.63;1.50;;;;;;;;;;5057891;28;20057;-58
2022/10/02 14:00:00;;;;;;;5.53;1.92;;;;;;;;;;5055764;28;20486;-58
2022/10/02 14:02:45;;;;;;;2.75;1.20;;;;;;;;;;5057228;28;20044;-58
2022/10/02 14:05:14;;;;;;;4.45;1.67;;;;;;;;;;5054207;28;20128;-57
2022/10/02 14:07:57;;;;;;;6.22;1.67;;;;;;;;;;5052210;28;20622;-58
2022/10/02 14:10:42;;;;;;;2.92;1.30;;;;;;;;;;5050822;28;20598;-58
2022/10/02 14:13:11;;;;;;;3.40;1.40;;;;;;;;;;5053328;28;20044;-58
2022/10/02 14:15:44;;;;;;;6.53;1.40;;;;;;;;;;5048094;28;20052;-57
2022/10/02 14:18:19;;;;;;;4.63;1.52;;;;;;;;;;5060805;28;20131;-58
2022/10/02 14:20:55;;;;;;;2.05;1.10;;;;;;;;;;5057226;28;20363;-58
2022/10/02 14:23:24;;;;;;;5.15;1.48;;;;;;;;;;5054467;28;20407;-57
2022/10/02 14:25:59;;;;;;;9.60;2.05;;;;;;;;;;5061511;28;20127;-58
2022/10/02 14:28:28;;;;;;;7.32;1.55;;;;;;;;;;5049581;28;20049;-57
2022/10/02 14:31:03;;;;;;;3.75;1.20;;;;;;;;;;5056182;28;20084;-57
2022/10/02 14:33:41;;;;;;;4.85;1.48;;;;;;;;;;5054626;28;20407;-58
2022/10/02 14:36:07;;;;;;;7.80;2.28;;;;;;;;;;5056697;28;20072;-58
2022/10/02 14:38:52;;;;;;;11.85;2.28;;;;;;;;;;5050929;28;20036;-58
2022/10/02 14:41:21;;;;;;;5.75;1.75;;;;;;;;;;5056612;28;20033;-58
2022/10/02 14:43:53;;;;;;;5.60;1.75;;;;;;;;;;5065185;28;20049;-57
2022/10/02 14:46:38;;;;;;;2.60;1.05;;;;;;;;;;5054140;28;20060;-58
2022/10/02 14:49:04;;;;;;;4.30;1.08;;;;;;;;;;5053377;28;20699;-58
2022/10/02 14:51:42;;;;;;;2.10;1.15;;;;;;;;;;5055589;28;20049;-58
2022/10/02 14:54:16;;;;;;;2.80;0.75;;;;;;;;;;5061163;28;20132;-58
2022/10/02 14:57:03;;;;;;;3.60;1.42;;;;;;;;;;5054965;28;20399;-58
2022/10/02 14:59:37;;;;;;;5.72;1.17;;;;;;;;;;5052151;28;20076;-58
2022/10/02 15:02:09;;;;;;;4.13;1.17;;;;;;;;;;5067612;28;20048;-57
2022/10/02 15:04:54;;;;;;;4.90;1.52;;;;;;;;;;5057476;28;20040;-57
2022/10/02 15:07:21;;;;;;;4.30;1.58;;;;;;;;;;5055892;28;20033;-58
2022/10/02 15:10:15;;;;;;;5.20;1.52;;;;;;;;;;5058793;28;20106;-57
2022/10/02 15:12:44;;;;;;;7.53;1.98;;;;;;;;;;5057368;28;20506;-57
2022/10/02 15:15:31;;;;;;;4.57;1.42;;;;;;;;;;5051480;28;20056;-58
2022/10/02 15:18:19;;;;;;;7.80;1.85;;;;;;;;;;5061085;28;20037;-58
2022/10/02 15:20:49;;;;;;;5.28;1.42;;;;;;;;;;5053574;28;20053;-57
2022/10/02 15:23:41;;;;;;;4.65;1.40;;;;;;;;;;5054230;28;20067;-58
2022/10/02 15:26:26;;;;;;;5.68;1.70;;;;;;;;;;5059658;28;20048;-58
2022/10/02 15:29:11;;;;;;;3.20;1.05;;;;;;;;;;5050914;28;20049;-58
2022/10/02 15:31:59;;;;;;;5.97;1.65;;;;;;;;;;5052655;28;20048;-58
2022/10/02 15:34:45;;;;;;;5.65;1.52;;;;;;;;;;5055140;28;20158;-58
2022/10/02 15:37:30;;;;;;;6.43;1.85;;;;;;;;;;5049086;28;20056;-58
2022/10/02 15:40:05;;;;;;;6.75;1.95;;;;;;;;;;5056152;28;20048;-58
2022/10/02 15:42:43;;;;;;;3.75;1.67;;;;;;;;;;5052502;28;20079;-58
2022/10/02 15:45:16;;;;;;;2.17;0.88;;;;;;;;;;5052463;28;20112;-58